Time;durP1;ratioP1;P1;durP2;ratioP2;P2;SDS_P1;SDS_P2;PMS_P1;PMS_P2;Temp;Humidity;BMP_temperature;BMP_pressure;BME280_temperature;BME280_humidity;BME280_pressure;Samples;Min_cycle;Max_cycle;Signal;HPM_P1;HPM_P2
2023/07/01 00:01:47;;;;;;;2.92;1.40;;;;;;;;;;5073343;28;20213;-66
2023/07/01 00:04:15;;;;;;;2.75;1.38;;;;;;;;;;5073560;28;20205;-66
2023/07/01 00:06:42;;;;;;;3.13;1.50;;;;;;;;;;5075284;28;20199;-66
2023/07/01 00:09:10;;;;;;;3.35;1.50;;;;;;;;;;5076350;28;20203;-66
2023/07/01 00:11:37;;;;;;;2.40;1.75;;;;;;;;;;5075730;28;20248;-66
2023/07/01 00:14:06;;;;;;;1.90;1.73;;;;;;;;;;5069409;28;20202;-66
2023/07/01 00:16:33;;;;;;;2.10;1.58;;;;;;;;;;5071391;28;20198;-66
2023/07/01 00:19:00;;;;;;;1.73;1.40;;;;;;;;;;5075083;28;20207;-66
2023/07/01 00:21:27;;;;;;;2.08;1.40;;;;;;;;;;5078848;28;20213;-66
2023/07/01 00:23:54;;;;;;;3.25;1.67;;;;;;;;;;5074044;28;20198;-66
2023/07/01 00:26:22;;;;;;;1.80;1.40;;;;;;;;;;5072182;28;20213;-66
2023/07/01 00:28:49;;;;;;;2.30;1.35;;;;;;;;;;5078516;28;20202;-66
2023/07/01 00:31:17;;;;;;;2.50;1.73;;;;;;;;;;5078020;28;20199;-66
2023/07/01 00:33:44;;;;;;;2.45;1.50;;;;;;;;;;5079693;28;20209;-66
2023/07/01 00:36:12;;;;;;;3.60;1.73;;;;;;;;;;5074465;28;20230;-66
2023/07/01 00:38:39;;;;;;;3.17;1.70;;;;;;;;;;5076050;28;20201;-66
2023/07/01 00:41:06;;;;;;;1.48;1.30;;;;;;;;;;5081002;28;20217;-66
2023/07/01 00:43:33;;;;;;;2.70;1.40;;;;;;;;;;5079149;28;20198;-66
2023/07/01 00:46:00;;;;;;;2.65;1.80;;;;;;;;;;5069046;28;20214;-66
2023/07/01 00:48:30;;;;;;;1.60;1.50;;;;;;;;;;5069748;28;20199;-66
2023/07/01 00:50:57;;;;;;;2.30;1.48;;;;;;;;;;5078349;28;20194;-67
2023/07/01 00:53:24;;;;;;;1.63;1.52;;;;;;;;;;5072554;28;20210;-66
2023/07/01 00:55:51;;;;;;;2.38;1.80;;;;;;;;;;5075198;28;20203;-66
2023/07/01 00:58:18;;;;;;;1.83;1.60;;;;;;;;;;5080731;28;20213;-66
2023/07/01 01:00:46;;;;;;;1.70;1.60;;;;;;;;;;5077553;28;20226;-66
2023/07/01 01:03:21;;;;;;;5.07;1.70;;;;;;;;;;5077264;28;20195;-66
2023/07/01 01:05:51;;;;;;;2.78;1.58;;;;;;;;;;5068312;28;20206;-66
2023/07/01 01:08:20;;;;;;;2.20;1.80;;;;;;;;;;5075539;28;20294;-66
2023/07/01 01:10:48;;;;;;;2.92;1.60;;;;;;;;;;5078179;28;20194;-66
2023/07/01 01:13:16;;;;;;;2.03;1.60;;;;;;;;;;5076272;28;20206;-66
2023/07/01 01:15:44;;;;;;;8.13;1.90;;;;;;;;;;5072185;28;20195;-66
2023/07/01 01:18:16;;;;;;;3.67;1.65;;;;;;;;;;5069176;28;20203;-66
2023/07/01 01:20:43;;;;;;;3.80;1.77;;;;;;;;;;5078190;28;20280;-66
2023/07/01 01:23:13;;;;;;;3.45;1.90;;;;;;;;;;5079935;28;20206;-66
2023/07/01 01:25:44;;;;;;;2.83;1.88;;;;;;;;;;5080226;28;20305;-67
2023/07/01 01:28:13;;;;;;;2.47;1.83;;;;;;;;;;5082435;28;20224;-66
2023/07/01 01:30:40;;;;;;;2.33;1.80;;;;;;;;;;5081105;28;20200;-66
2023/07/01 01:33:08;;;;;;;6.93;1.80;;;;;;;;;;5073211;28;20198;-66
2023/07/01 01:35:35;;;;;;;3.92;1.90;;;;;;;;;;5073413;28;20234;-66
2023/07/01 01:38:05;;;;;;;2.05;1.55;;;;;;;;;;5080930;28;20264;-66
2023/07/01 01:40:35;;;;;;;6.00;2.35;;;;;;;;;;5079640;28;20237;-66
2023/07/01 01:43:07;;;;;;;4.60;1.88;;;;;;;;;;5079514;28;20212;-67
2023/07/01 01:45:36;;;;;;;2.78;1.80;;;;;;;;;;5072247;28;20202;-67
2023/07/01 01:48:04;;;;;;;2.97;1.55;;;;;;;;;;5077561;28;20271;-67
2023/07/01 01:50:33;;;;;;;3.60;1.70;;;;;;;;;;5077281;28;20211;-67
2023/07/01 01:53:01;;;;;;;2.72;1.92;;;;;;;;;;5081183;28;20206;-67
2023/07/01 01:55:29;;;;;;;2.95;2.00;;;;;;;;;;5080182;28;20287;-67
2023/07/01 01:57:56;;;;;;;3.83;1.58;;;;;;;;;;5076970;28;20205;-66
2023/07/01 02:00:24;;;;;;;2.40;1.73;;;;;;;;;;5079653;28;20218;-67
2023/07/01 02:02:52;;;;;;;3.08;1.77;;;;;;;;;;5078891;28;20199;-67
2023/07/01 02:05:19;;;;;;;2.38;1.88;;;;;;;;;;5077361;28;20199;-67
2023/07/01 02:07:47;;;;;;;2.55;1.60;;;;;;;;;;5075835;28;20206;-67
2023/07/01 02:10:14;;;;;;;2.55;1.67;;;;;;;;;;5075618;28;20195;-66
2023/07/01 02:12:41;;;;;;;4.10;2.13;;;;;;;;;;5078531;28;20206;-67
2023/07/01 02:15:09;;;;;;;2.95;1.98;;;;;;;;;;5076924;28;20202;-66
2023/07/01 02:17:36;;;;;;;3.30;1.70;;;;;;;;;;5079349;28;20229;-66
2023/07/01 02:20:05;;;;;;;2.45;1.75;;;;;;;;;;5071839;28;20221;-66
2023/07/01 02:22:33;;;;;;;2.88;2.00;;;;;;;;;;5072056;28;20264;-67
2023/07/01 02:25:00;;;;;;;2.90;1.90;;;;;;;;;;5079689;28;20260;-66
2023/07/01 02:27:30;;;;;;;4.00;1.67;;;;;;;;;;5077937;28;20354;-66
2023/07/01 02:29:57;;;;;;;2.08;1.75;;;;;;;;;;5079450;28;20230;-67
2023/07/01 02:32:25;;;;;;;2.97;1.83;;;;;;;;;;5071932;28;20210;-67
2023/07/01 02:34:52;;;;;;;4.55;2.00;;;;;;;;;;5071251;28;20199;-66
2023/07/01 02:37:20;;;;;;;1.95;1.75;;;;;;;;;;5079062;28;20356;-67
2023/07/01 02:39:47;;;;;;;3.00;1.70;;;;;;;;;;5075821;28;20199;-67
2023/07/01 02:42:19;;;;;;;3.85;1.73;;;;;;;;;;5079366;28;20206;-67
2023/07/01 02:44:46;;;;;;;3.50;2.08;;;;;;;;;;5078838;28;20221;-67
2023/07/01 02:47:14;;;;;;;2.30;1.70;;;;;;;;;;5080846;28;20213;-66
2023/07/01 02:49:41;;;;;;;2.53;1.80;;;;;;;;;;5070886;28;20209;-67
2023/07/01 02:52:09;;;;;;;3.40;2.00;;;;;;;;;;5071156;28;20205;-67
2023/07/01 02:54:38;;;;;;;5.20;1.85;;;;;;;;;;5074644;28;20206;-67
2023/07/01 02:57:07;;;;;;;3.63;1.90;;;;;;;;;;5071401;28;20289;-67
2023/07/01 02:59:34;;;;;;;3.75;2.28;;;;;;;;;;5071031;28;20198;-66
2023/07/01 03:02:01;;;;;;;3.97;2.10;;;;;;;;;;5085499;28;20234;-67
2023/07/01 03:04:28;;;;;;;3.78;2.05;;;;;;;;;;5084872;28;20285;-67
2023/07/01 03:06:56;;;;;;;4.70;1.83;;;;;;;;;;5076961;28;20202;-68
2023/07/01 03:09:23;;;;;;;2.35;2.00;;;;;;;;;;5084117;28;20222;-68
2023/07/01 03:11:52;;;;;;;2.67;1.60;;;;;;;;;;5074667;28;20276;-68
2023/07/01 03:14:20;;;;;;;6.50;2.10;;;;;;;;;;5075874;28;20203;-67
2023/07/01 03:16:49;;;;;;;4.57;2.30;;;;;;;;;;5078439;28;20217;-67
2023/07/01 03:19:16;;;;;;;3.63;2.30;;;;;;;;;;5076819;28;20202;-69
2023/07/01 03:21:45;;;;;;;4.85;1.88;;;;;;;;;;5074982;28;20215;-70
2023/07/01 03:24:12;;;;;;;2.95;2.17;;;;;;;;;;5077970;28;20203;-70
2023/07/01 03:26:39;;;;;;;2.83;2.05;;;;;;;;;;5082693;28;20194;-71
2023/07/01 03:29:08;;;;;;;4.13;2.20;;;;;;;;;;5070541;28;20194;-71
2023/07/01 03:31:35;;;;;;;3.92;1.85;;;;;;;;;;5070039;28;20229;-71
2023/07/01 03:34:02;;;;;;;2.97;1.90;;;;;;;;;;5078215;28;20202;-71
2023/07/01 03:36:29;;;;;;;2.40;1.85;;;;;;;;;;5070487;28;20226;-71
2023/07/01 03:38:58;;;;;;;5.00;2.33;;;;;;;;;;5069614;28;20210;-71
2023/07/01 03:41:25;;;;;;;4.55;2.00;;;;;;;;;;5078248;28;20272;-71
2023/07/01 03:43:53;;;;;;;2.63;2.10;;;;;;;;;;5077793;28;20201;-71
2023/07/01 03:46:21;;;;;;;3.53;2.35;;;;;;;;;;5079472;28;20209;-71
2023/07/01 03:48:48;;;;;;;2.20;2.00;;;;;;;;;;5078348;28;20213;-70
2023/07/01 03:51:16;;;;;;;3.63;2.38;;;;;;;;;;5069766;28;20195;-71
2023/07/01 03:53:43;;;;;;;4.30;2.13;;;;;;;;;;5069913;28;20206;-70
2023/07/01 03:56:10;;;;;;;3.17;2.25;;;;;;;;;;5072898;28;20202;-71
2023/07/01 03:58:37;;;;;;;6.50;2.28;;;;;;;;;;5076027;28;20258;-72
2023/07/01 04:01:05;;;;;;;2.53;1.90;;;;;;;;;;5079169;28;20221;-71
2023/07/01 04:03:35;;;;;;;5.20;2.00;;;;;;;;;;5079557;28;20202;-70
2023/07/01 04:06:03;;;;;;;3.20;2.03;;;;;;;;;;5070303;28;20199;-70
2023/07/01 04:08:30;;;;;;;3.40;1.90;;;;;;;;;;5069460;28;20203;-70
2023/07/01 04:10:57;;;;;;;3.38;1.92;;;;;;;;;;5080111;28;20205;-70
2023/07/01 04:13:24;;;;;;;2.13;1.92;;;;;;;;;;5076208;28;20202;-70
2023/07/01 04:15:51;;;;;;;7.30;2.53;;;;;;;;;;5083135;28;20214;-70
2023/07/01 04:18:19;;;;;;;4.68;2.10;;;;;;;;;;5078261;28;20209;-70
2023/07/01 04:20:47;;;;;;;2.65;2.10;;;;;;;;;;5078608;28;20226;-70
2023/07/01 04:23:14;;;;;;;3.15;1.77;;;;;;;;;;5078160;28;20206;-71
2023/07/01 04:25:41;;;;;;;7.63;2.00;;;;;;;;;;5076742;28;20215;-71
2023/07/01 04:28:09;;;;;;;3.42;2.10;;;;;;;;;;5080508;28;20203;-71
2023/07/01 04:30:36;;;;;;;3.13;1.70;;;;;;;;;;5075945;28;20205;-71
2023/07/01 04:33:03;;;;;;;3.67;1.90;;;;;;;;;;5074780;28;20207;-71
2023/07/01 04:35:30;;;;;;;2.53;1.75;;;;;;;;;;5072508;28;20241;-71
2023/07/01 04:37:59;;;;;;;2.85;2.33;;;;;;;;;;5074880;28;20214;-71
2023/07/01 04:40:26;;;;;;;3.38;1.92;;;;;;;;;;5077184;28;20213;-71
2023/07/01 04:42:53;;;;;;;3.63;2.28;;;;;;;;;;5073768;28;20207;-70
2023/07/01 04:45:21;;;;;;;6.22;1.88;;;;;;;;;;5073128;28;20203;-69
2023/07/01 04:47:48;;;;;;;2.00;1.85;;;;;;;;;;5079078;28;20289;-70
2023/07/01 04:50:15;;;;;;;5.22;1.80;;;;;;;;;;5075158;28;20195;-70
2023/07/01 04:52:43;;;;;;;5.18;2.13;;;;;;;;;;5074040;28;20191;-70
2023/07/01 04:55:12;;;;;;;4.82;2.03;;;;;;;;;;5074528;28;20230;-69
2023/07/01 04:57:39;;;;;;;1.80;1.70;;;;;;;;;;5078989;28;20213;-70
2023/07/01 05:00:10;;;;;;;3.20;1.90;;;;;;;;;;5077107;28;20213;-70
2023/07/01 05:02:37;;;;;;;4.90;2.10;;;;;;;;;;5081131;28;20273;-70
2023/07/01 05:05:05;;;;;;;4.35;1.58;;;;;;;;;;5082031;28;20209;-68
2023/07/01 05:07:32;;;;;;;2.95;1.65;;;;;;;;;;5073164;28;20318;-69
2023/07/01 05:09:59;;;;;;;2.75;1.70;;;;;;;;;;5077997;28;20206;-69
2023/07/01 05:12:28;;;;;;;5.40;2.15;;;;;;;;;;5079083;28;20202;-70
2023/07/01 05:14:55;;;;;;;2.50;1.63;;;;;;;;;;5079477;28;20203;-70
2023/07/01 05:17:22;;;;;;;6.95;4.30;;;;;;;;;;5075337;28;20273;-70
2023/07/01 05:19:49;;;;;;;4.25;1.70;;;;;;;;;;5076997;28;20199;-70
2023/07/01 05:22:16;;;;;;;2.78;1.67;;;;;;;;;;5078420;28;20242;-69
2023/07/01 05:24:43;;;;;;;3.30;1.92;;;;;;;;;;5078642;28;20210;-72
2023/07/01 05:27:11;;;;;;;3.40;1.75;;;;;;;;;;5082139;28;20209;-72
2023/07/01 05:29:39;;;;;;;2.95;1.70;;;;;;;;;;5078872;28;20216;-72
2023/07/01 05:32:07;;;;;;;4.18;1.67;;;;;;;;;;5082748;28;20252;-71
2023/07/01 05:34:34;;;;;;;2.90;1.70;;;;;;;;;;5079433;28;20286;-70
2023/07/01 05:37:01;;;;;;;6.13;1.90;;;;;;;;;;5077466;28;20262;-72
2023/07/01 05:39:31;;;;;;;4.60;2.10;;;;;;;;;;5080574;28;20221;-70
2023/07/01 05:41:58;;;;;;;3.10;1.80;;;;;;;;;;5079654;28;20230;-71
2023/07/01 05:44:25;;;;;;;3.33;1.73;;;;;;;;;;5083385;28;20211;-71
2023/07/01 05:46:54;;;;;;;3.15;1.80;;;;;;;;;;5078408;28;20210;-71
2023/07/01 05:49:21;;;;;;;4.32;1.88;;;;;;;;;;5079623;28;20213;-70
2023/07/01 05:51:49;;;;;;;3.25;1.80;;;;;;;;;;5077938;28;20202;-72
2023/07/01 05:54:16;;;;;;;2.63;1.85;;;;;;;;;;5080157;28;20203;-71
2023/07/01 05:56:43;;;;;;;3.30;1.88;;;;;;;;;;5078709;28;20237;-70
2023/07/01 05:59:11;;;;;;;2.63;1.90;;;;;;;;;;5078365;28;20202;-69
2023/07/01 06:01:39;;;;;;;6.38;2.20;;;;;;;;;;5075266;28;20218;-72
2023/07/01 06:04:07;;;;;;;7.00;2.03;;;;;;;;;;5080499;28;20194;-71
2023/07/01 06:06:34;;;;;;;6.55;1.90;;;;;;;;;;5077704;28;20203;-72
2023/07/01 06:09:02;;;;;;;5.43;1.90;;;;;;;;;;5078465;28;20210;-72
2023/07/01 06:11:29;;;;;;;4.47;1.95;;;;;;;;;;5084203;28;20298;-71
2023/07/01 06:13:56;;;;;;;3.88;1.92;;;;;;;;;;5079764;28;20213;-73
2023/07/01 06:16:23;;;;;;;4.65;2.20;;;;;;;;;;5079336;28;20214;-70
2023/07/01 06:18:50;;;;;;;3.58;2.10;;;;;;;;;;5078132;28;20206;-66
2023/07/01 06:21:19;;;;;;;2.88;1.80;;;;;;;;;;5076763;28;20310;-67
2023/07/01 06:23:46;;;;;;;3.70;2.20;;;;;;;;;;5081379;28;20206;-68
2023/07/01 06:26:14;;;;;;;5.15;2.15;;;;;;;;;;5079735;28;20257;-68
2023/07/01 06:28:41;;;;;;;3.67;2.10;;;;;;;;;;5078043;28;20225;-67
2023/07/01 06:31:08;;;;;;;5.18;2.20;;;;;;;;;;5080406;28;20209;-68
2023/07/01 06:33:38;;;;;;;5.25;2.00;;;;;;;;;;5071888;28;20217;-67
2023/07/01 06:36:05;;;;;;;3.90;2.45;;;;;;;;;;5086962;28;20329;-68
2023/07/01 06:38:34;;;;;;;4.53;2.58;;;;;;;;;;5079011;28;20216;-66
2023/07/01 06:41:01;;;;;;;2.67;2.10;;;;;;;;;;5077296;28;20220;-67
2023/07/01 06:43:29;;;;;;;3.72;2.20;;;;;;;;;;5075640;28;20226;-69
2023/07/01 06:45:56;;;;;;;2.83;2.03;;;;;;;;;;5078037;28;20210;-66
2023/07/01 06:48:23;;;;;;;3.05;2.20;;;;;;;;;;5084227;28;20206;-67
2023/07/01 06:50:50;;;;;;;4.25;2.47;;;;;;;;;;5078340;28;20202;-68
2023/07/01 06:53:17;;;;;;;3.40;2.38;;;;;;;;;;5078783;28;20199;-67
2023/07/01 06:55:46;;;;;;;3.42;2.13;;;;;;;;;;5076006;28;20194;-67
2023/07/01 06:58:13;;;;;;;3.83;2.17;;;;;;;;;;5074687;28;20203;-68
2023/07/01 07:00:41;;;;;;;3.10;2.30;;;;;;;;;;5077840;28;20206;-67
2023/07/01 07:03:10;;;;;;;3.15;2.38;;;;;;;;;;5078132;28;20230;-66
2023/07/01 07:05:37;;;;;;;2.63;2.15;;;;;;;;;;5077348;28;20292;-66
2023/07/01 07:08:04;;;;;;;4.03;2.70;;;;;;;;;;5077977;28;20198;-67
2023/07/01 07:10:32;;;;;;;4.30;2.97;;;;;;;;;;5070839;28;20203;-66
2023/07/01 07:13:00;;;;;;;7.13;2.50;;;;;;;;;;5077529;28;20207;-67
2023/07/01 07:15:27;;;;;;;3.97;2.80;;;;;;;;;;5074748;28;20202;-67
2023/07/01 07:17:54;;;;;;;6.78;2.50;;;;;;;;;;5078675;28;20198;-66
2023/07/01 07:20:22;;;;;;;4.03;2.50;;;;;;;;;;5078137;28;20207;-66
2023/07/01 07:22:49;;;;;;;3.33;2.50;;;;;;;;;;5073920;28;20241;-68
2023/07/01 07:25:16;;;;;;;3.42;2.70;;;;;;;;;;5077140;28;20228;-68
2023/07/01 07:27:44;;;;;;;3.72;2.70;;;;;;;;;;5078471;28;20233;-70
2023/07/01 07:30:13;;;;;;;6.03;2.83;;;;;;;;;;5080370;28;20214;-72
2023/07/01 07:32:40;;;;;;;3.75;3.05;;;;;;;;;;5077835;28;20205;-70
2023/07/01 07:35:08;;;;;;;5.32;3.10;;;;;;;;;;5085256;28;20198;-70
2023/07/01 07:37:35;;;;;;;3.17;2.88;;;;;;;;;;5076449;28;20207;-69
2023/07/01 07:40:05;;;;;;;4.55;2.65;;;;;;;;;;5081098;28;20210;-69
2023/07/01 07:42:32;;;;;;;3.03;2.75;;;;;;;;;;5074157;28;20223;-68
2023/07/01 07:44:59;;;;;;;2.67;2.47;;;;;;;;;;5077507;28;20211;-69
2023/07/01 07:47:28;;;;;;;2.97;2.60;;;;;;;;;;5083572;28;20213;-67
2023/07/01 07:49:55;;;;;;;3.33;2.55;;;;;;;;;;5081903;28;20214;-67
2023/07/01 07:52:22;;;;;;;3.22;2.90;;;;;;;;;;5080827;28;20206;-71
2023/07/01 07:54:50;;;;;;;4.10;3.22;;;;;;;;;;5082033;28;20210;-70
2023/07/01 07:57:17;;;;;;;4.63;3.22;;;;;;;;;;5077102;28;20199;-69
2023/07/01 07:59:44;;;;;;;3.38;3.08;;;;;;;;;;5079505;28;20210;-67
2023/07/01 08:02:11;;;;;;;3.05;2.80;;;;;;;;;;5077426;28;20210;-69
2023/07/01 08:04:40;;;;;;;3.40;2.60;;;;;;;;;;5075065;28;20206;-70
2023/07/01 08:07:07;;;;;;;3.85;2.50;;;;;;;;;;5079158;28;20202;-66
2023/07/01 08:09:35;;;;;;;3.08;2.25;;;;;;;;;;5079927;28;20263;-69
2023/07/01 08:12:02;;;;;;;4.15;2.88;;;;;;;;;;5084826;28;20211;-69
2023/07/01 08:14:30;;;;;;;4.05;2.40;;;;;;;;;;5084567;28;20216;-67
2023/07/01 08:16:58;;;;;;;2.60;2.40;;;;;;;;;;5079584;28;20202;-72
2023/07/01 08:19:25;;;;;;;2.67;2.42;;;;;;;;;;5070865;28;20202;-68
2023/07/01 08:21:54;;;;;;;3.53;2.72;;;;;;;;;;5077775;28;20210;-68
2023/07/01 08:24:23;;;;;;;2.67;2.45;;;;;;;;;;5078531;28;20203;-67
2023/07/01 08:26:50;;;;;;;4.43;2.88;;;;;;;;;;5081062;28;20297;-69
2023/07/01 08:29:17;;;;;;;3.45;2.80;;;;;;;;;;5078116;28;20203;-69
2023/07/01 08:31:44;;;;;;;3.13;2.80;;;;;;;;;;5072693;28;20203;-68
2023/07/01 08:34:12;;;;;;;2.90;2.67;;;;;;;;;;5074356;28;20199;-71
2023/07/01 08:36:39;;;;;;;3.70;3.38;;;;;;;;;;5077207;28;20231;-69
2023/07/01 08:39:07;;;;;;;3.88;3.47;;;;;;;;;;5077339;28;20209;-70
2023/07/01 08:41:38;;;;;;;3.20;2.97;;;;;;;;;;5077400;28;20262;-69
2023/07/01 08:44:06;;;;;;;5.38;3.10;;;;;;;;;;5076441;28;20226;-70
2023/07/01 08:46:34;;;;;;;3.65;2.97;;;;;;;;;;5076171;28;20199;-71
2023/07/01 08:49:01;;;;;;;6.40;3.22;;;;;;;;;;5075311;28;20210;-69
2023/07/01 08:51:30;;;;;;;3.72;3.28;;;;;;;;;;5076566;28;20221;-71
2023/07/01 08:53:59;;;;;;;3.63;2.92;;;;;;;;;;5077938;28;20210;-73
2023/07/01 08:56:27;;;;;;;3.15;2.83;;;;;;;;;;5070713;28;20210;-70
2023/07/01 08:58:55;;;;;;;2.90;2.65;;;;;;;;;;5070694;28;20211;-70
2023/07/01 09:01:22;;;;;;;4.32;3.38;;;;;;;;;;5082808;28;20206;-67
2023/07/01 09:03:51;;;;;;;4.50;3.30;;;;;;;;;;5078139;28;20229;-65
2023/07/01 09:06:20;;;;;;;3.30;2.90;;;;;;;;;;5079319;28;20198;-68
2023/07/01 09:08:47;;;;;;;3.33;2.97;;;;;;;;;;5079773;28;20286;-70
2023/07/01 09:11:15;;;;;;;3.42;3.13;;;;;;;;;;5078381;28;20206;-69
2023/07/01 09:13:44;;;;;;;3.70;3.13;;;;;;;;;;5082885;28;20225;-69
2023/07/01 09:16:11;;;;;;;7.57;3.53;;;;;;;;;;5078237;28;20210;-71
2023/07/01 09:18:43;;;;;;;4.10;3.70;;;;;;;;;;5078096;28;20293;-72
2023/07/01 09:21:18;;;;;;;4.13;3.72;;;;;;;;;;5076791;28;20210;-73
2023/07/01 09:23:45;;;;;;;4.78;4.30;;;;;;;;;;5070055;28;20202;-69
2023/07/01 09:26:17;;;;;;;3.83;3.53;;;;;;;;;;5070056;28;20230;-69
2023/07/01 09:28:46;;;;;;;4.32;3.90;;;;;;;;;;5076705;28;20221;-68
2023/07/01 09:31:14;;;;;;;4.10;3.70;;;;;;;;;;5076673;28;20252;-67
2023/07/01 09:33:42;;;;;;;4.10;3.80;;;;;;;;;;5080667;28;20202;-69
2023/07/01 09:36:10;;;;;;;4.25;3.88;;;;;;;;;;5076453;28;20235;-70
2023/07/01 09:38:50;;;;;;;3.88;3.42;;;;;;;;;;5078924;28;20199;-66
2023/07/01 09:41:19;;;;;;;4.35;3.95;;;;;;;;;;5079957;28;20199;-69
2023/07/01 09:43:48;;;;;;;4.57;4.18;;;;;;;;;;5082968;28;20230;-67
2023/07/01 09:46:16;;;;;;;4.50;4.10;;;;;;;;;;5081112;28;20202;-68
2023/07/01 09:48:52;;;;;;;3.28;2.97;;;;;;;;;;5083856;28;20203;-69
2023/07/01 09:51:19;;;;;;;3.53;3.22;;;;;;;;;;5073389;28;20207;-67
2023/07/01 09:53:46;;;;;;;3.60;3.30;;;;;;;;;;5073055;28;20195;-69
2023/07/01 09:56:15;;;;;;;3.50;3.20;;;;;;;;;;5079861;28;20242;-67
2023/07/01 09:58:42;;;;;;;4.05;3.13;;;;;;;;;;5078875;28;20205;-67
2023/07/01 10:01:12;;;;;;;3.10;2.90;;;;;;;;;;5078269;28;20206;-69
2023/07/01 10:03:39;;;;;;;3.20;2.90;;;;;;;;;;5072305;28;20215;-70
2023/07/01 10:06:06;;;;;;;2.60;2.17;;;;;;;;;;5077826;28;20211;-67
2023/07/01 10:08:34;;;;;;;2.80;2.60;;;;;;;;;;5078452;28;20214;-69
2023/07/01 10:11:03;;;;;;;3.03;2.50;;;;;;;;;;5072903;28;20203;-69
2023/07/01 10:13:32;;;;;;;2.95;2.67;;;;;;;;;;5080788;28;20199;-70
2023/07/01 10:16:02;;;;;;;2.70;2.50;;;;;;;;;;5079814;28;20201;-70
2023/07/01 10:18:31;;;;;;;2.95;2.75;;;;;;;;;;5076405;28;20224;-69
2023/07/01 10:21:13;;;;;;;3.05;2.85;;;;;;;;;;5083169;28;20209;-71
2023/07/01 10:23:46;;;;;;;3.83;2.50;;;;;;;;;;5078916;28;20229;-70
2023/07/01 10:26:28;;;;;;;2.78;2.30;;;;;;;;;;5080133;28;20216;-66
2023/07/01 10:28:55;;;;;;;2.20;2.10;;;;;;;;;;5070878;28;20237;-68
2023/07/01 10:31:23;;;;;;;3.13;2.50;;;;;;;;;;5076191;28;20195;-68
2023/07/01 10:33:52;;;;;;;2.30;2.20;;;;;;;;;;5078841;28;20205;-68
2023/07/01 10:36:20;;;;;;;4.97;2.67;;;;;;;;;;5071093;28;20313;-68
2023/07/01 10:38:48;;;;;;;2.60;2.40;;;;;;;;;;5082176;28;20241;-68
2023/07/01 10:41:15;;;;;;;1.60;1.50;;;;;;;;;;5082685;28;20202;-71
2023/07/01 10:43:42;;;;;;;2.00;1.90;;;;;;;;;;5080751;28;20218;-66
2023/07/01 10:46:23;;;;;;;2.03;1.90;;;;;;;;;;5080004;28;20206;-70
2023/07/01 10:49:09;;;;;;;2.10;2.00;;;;;;;;;;5078953;28;20208;-68
2023/07/01 10:51:55;;;;;;;3.03;2.35;;;;;;;;;;5072284;28;20209;-71
2023/07/01 10:54:30;;;;;;;1.95;1.85;;;;;;;;;;5071466;28;20199;-67
2023/07/01 10:57:12;;;;;;;2.00;1.90;;;;;;;;;;5085324;28;20203;-66
2023/07/01 10:59:39;;;;;;;2.20;2.10;;;;;;;;;;5075970;28;20202;-69
2023/07/01 11:02:08;;;;;;;1.90;1.80;;;;;;;;;;5077176;28;20210;-66
2023/07/01 11:04:56;;;;;;;2.60;2.40;;;;;;;;;;5079694;28;20217;-67
2023/07/01 11:07:25;;;;;;;2.00;1.90;;;;;;;;;;5072597;28;20267;-67
2023/07/01 11:09:53;;;;;;;2.10;1.90;;;;;;;;;;5085967;28;20324;-66
2023/07/01 11:12:20;;;;;;;1.90;1.80;;;;;;;;;;5076873;28;20210;-67
2023/07/01 11:14:47;;;;;;;2.45;2.00;;;;;;;;;;5077246;28;20213;-66
2023/07/01 11:17:15;;;;;;;2.55;2.38;;;;;;;;;;5076306;28;20202;-67
2023/07/01 11:19:44;;;;;;;2.42;2.22;;;;;;;;;;5073539;28;20203;-67
2023/07/01 11:22:11;;;;;;;1.90;1.80;;;;;;;;;;5074758;28;20207;-66
2023/07/01 11:24:40;;;;;;;2.25;2.10;;;;;;;;;;5078230;28;20278;-67
2023/07/01 11:27:08;;;;;;;2.15;1.95;;;;;;;;;;5080188;28;20214;-66
2023/07/01 11:29:35;;;;;;;2.00;1.90;;;;;;;;;;5079555;28;20298;-66
2023/07/01 11:32:03;;;;;;;2.40;1.98;;;;;;;;;;5070088;28;20214;-69
2023/07/01 11:34:31;;;;;;;2.25;2.15;;;;;;;;;;5075727;28;20202;-67
2023/07/01 11:36:58;;;;;;;2.60;2.40;;;;;;;;;;5078088;28;20242;-66
2023/07/01 11:39:26;;;;;;;2.60;2.40;;;;;;;;;;5076156;28;20210;-67
2023/07/01 11:41:55;;;;;;;2.22;2.13;;;;;;;;;;5074688;28;20199;-66
2023/07/01 11:44:23;;;;;;;2.08;1.98;;;;;;;;;;5077972;28;20223;-68
2023/07/01 11:46:52;;;;;;;2.45;2.13;;;;;;;;;;5076841;28;20211;-66
2023/07/01 11:49:19;;;;;;;2.85;2.20;;;;;;;;;;5069820;28;20207;-68
2023/07/01 11:51:48;;;;;;;2.60;2.40;;;;;;;;;;5076272;28;20266;-70
2023/07/01 11:54:15;;;;;;;2.50;1.92;;;;;;;;;;5072335;28;20217;-67
2023/07/01 11:56:43;;;;;;;2.53;2.33;;;;;;;;;;5075923;28;20232;-71
2023/07/01 11:59:11;;;;;;;2.15;2.05;;;;;;;;;;5069726;28;20214;-71
2023/07/01 12:01:39;;;;;;;2.20;2.10;;;;;;;;;;5077537;28;20210;-71
2023/07/01 12:04:17;;;;;;;1.98;1.85;;;;;;;;;;5069015;28;20219;-67
2023/07/01 12:06:45;;;;;;;2.03;1.92;;;;;;;;;;5070394;28;20249;-68
2023/07/01 12:09:27;;;;;;;2.45;1.45;;;;;;;;;;5076329;28;20272;-71
2023/07/01 12:11:54;;;;;;;1.40;1.30;;;;;;;;;;5082818;28;20206;-68
2023/07/01 12:14:23;;;;;;;1.73;1.63;;;;;;;;;;5078367;28;20204;-71
2023/07/01 12:16:51;;;;;;;1.70;1.60;;;;;;;;;;5077016;28;20209;-71
2023/07/01 12:19:18;;;;;;;1.52;1.42;;;;;;;;;;5072393;28;20206;-75
2023/07/01 12:21:45;;;;;;;1.23;1.13;;;;;;;;;;5072594;28;20207;-72
2023/07/01 12:24:19;;;;;;;1.50;1.40;;;;;;;;;;5069875;28;20253;-68
2023/07/01 12:26:47;;;;;;;1.60;1.50;;;;;;;;;;5079016;28;20208;-69
2023/07/01 12:29:14;;;;;;;2.60;1.40;;;;;;;;;;5075638;28;20210;-69
2023/07/01 12:31:42;;;;;;;1.55;1.45;;;;;;;;;;5075854;28;20202;-70
2023/07/01 12:34:10;;;;;;;2.25;1.60;;;;;;;;;;5075522;28;20206;-70
2023/07/01 12:36:37;;;;;;;1.52;1.42;;;;;;;;;;5077227;28;20238;-70
2023/07/01 12:39:05;;;;;;;1.58;1.48;;;;;;;;;;5079878;28;20218;-70
2023/07/01 12:41:32;;;;;;;1.55;1.45;;;;;;;;;;5081435;28;20227;-70
2023/07/01 12:43:59;;;;;;;1.20;1.20;;;;;;;;;;5077414;28;20233;-70
2023/07/01 12:46:26;;;;;;;1.40;1.27;;;;;;;;;;5073450;28;20214;-69
2023/07/01 12:48:55;;;;;;;1.02;1.02;;;;;;;;;;5072346;28;20199;-69
2023/07/01 12:51:22;;;;;;;1.17;1.17;;;;;;;;;;5075554;28;20206;-69
2023/07/01 12:53:49;;;;;;;1.42;1.33;;;;;;;;;;5075831;28;20201;-69
2023/07/01 12:56:18;;;;;;;1.10;1.10;;;;;;;;;;5076171;28;20330;-71
2023/07/01 12:58:45;;;;;;;1.10;1.10;;;;;;;;;;5078952;28;20252;-72
2023/07/01 13:01:12;;;;;;;1.65;1.00;;;;;;;;;;5079330;28;20205;-69
2023/07/01 13:03:41;;;;;;;0.80;0.80;;;;;;;;;;5079743;28;20226;-69
2023/07/01 13:06:22;;;;;;;1.20;1.10;;;;;;;;;;5070318;28;20206;-69
2023/07/01 13:08:50;;;;;;;0.88;0.88;;;;;;;;;;5082485;28;20202;-68
2023/07/01 13:11:18;;;;;;;0.80;0.80;;;;;;;;;;5077846;28;20213;-68
2023/07/01 13:13:45;;;;;;;0.90;0.90;;;;;;;;;;5077651;28;20191;-68
2023/07/01 13:16:23;;;;;;;1.20;1.10;;;;;;;;;;5086051;28;20206;-67
2023/07/01 13:18:50;;;;;;;0.80;0.80;;;;;;;;;;5077538;28;20207;-69
2023/07/01 13:21:19;;;;;;;1.35;0.80;;;;;;;;;;5084535;28;20210;-67
2023/07/01 13:23:46;;;;;;;0.80;0.80;;;;;;;;;;5078813;28;20230;-68
2023/07/01 13:26:17;;;;;;;0.90;0.90;;;;;;;;;;5081070;28;20207;-69
2023/07/01 13:28:44;;;;;;;0.80;0.80;;;;;;;;;;5074125;28;20203;-69
2023/07/01 13:31:13;;;;;;;0.80;0.80;;;;;;;;;;5081213;28;20210;-68
2023/07/01 13:33:43;;;;;;;0.75;0.75;;;;;;;;;;5077945;28;20203;-68
2023/07/01 13:36:12;;;;;;;1.33;0.60;;;;;;;;;;5076731;28;20280;-67
2023/07/01 13:38:40;;;;;;;0.77;0.77;;;;;;;;;;5078750;28;20210;-68
2023/07/01 13:41:07;;;;;;;0.73;0.73;;;;;;;;;;5077690;28;20207;-67
2023/07/01 13:43:36;;;;;;;0.60;0.60;;;;;;;;;;5080566;28;20202;-69
2023/07/01 13:46:03;;;;;;;0.52;0.52;;;;;;;;;;5078164;28;20211;-70
2023/07/01 13:48:33;;;;;;;0.60;0.60;;;;;;;;;;5081051;28;20209;-69
2023/07/01 13:51:00;;;;;;;0.70;0.70;;;;;;;;;;5078859;28;20209;-68
2023/07/01 13:53:29;;;;;;;0.80;0.80;;;;;;;;;;5078107;28;20266;-68
2023/07/01 13:55:57;;;;;;;0.90;0.70;;;;;;;;;;5077998;28;20202;-68
2023/07/01 13:58:24;;;;;;;0.93;0.82;;;;;;;;;;5080139;28;20199;-71
2023/07/01 14:00:53;;;;;;;0.77;0.77;;;;;;;;;;5081642;28;20209;-71
2023/07/01 14:03:28;;;;;;;1.35;0.60;;;;;;;;;;5079336;28;20198;-70
2023/07/01 14:05:56;;;;;;;1.15;0.50;;;;;;;;;;5072382;28;20221;-69
2023/07/01 14:08:24;;;;;;;0.50;0.50;;;;;;;;;;5078309;28;20202;-69
2023/07/01 14:10:52;;;;;;;1.40;0.80;;;;;;;;;;5078453;28;20199;-69
2023/07/01 14:13:22;;;;;;;0.60;0.60;;;;;;;;;;5080116;28;20292;-69
2023/07/01 14:15:50;;;;;;;0.70;0.60;;;;;;;;;;5080404;28;20203;-70
2023/07/01 14:18:22;;;;;;;0.70;0.70;;;;;;;;;;5079286;28;20198;-69
2023/07/01 14:20:52;;;;;;;0.47;0.47;;;;;;;;;;5077520;28;20205;-69
2023/07/01 14:23:20;;;;;;;0.65;0.65;;;;;;;;;;5076960;28;20232;-67
2023/07/01 14:25:47;;;;;;;0.63;0.63;;;;;;;;;;5078057;28;20234;-67
2023/07/01 14:28:15;;;;;;;1.65;0.90;;;;;;;;;;5077477;28;20298;-67
2023/07/01 14:30:54;;;;;;;0.80;0.80;;;;;;;;;;5077871;28;20213;-67
2023/07/01 14:33:21;;;;;;;0.60;0.60;;;;;;;;;;5073519;28;20198;-67
2023/07/01 14:35:48;;;;;;;0.70;0.70;;;;;;;;;;5078828;28;20219;-67
2023/07/01 14:38:16;;;;;;;0.70;0.70;;;;;;;;;;5082547;28;20210;-67
2023/07/01 14:40:43;;;;;;;0.95;0.95;;;;;;;;;;5083870;28;20202;-69
2023/07/01 14:43:11;;;;;;;3.20;2.67;;;;;;;;;;5085551;28;20278;-67
2023/07/01 14:45:39;;;;;;;1.45;1.30;;;;;;;;;;5077125;28;20229;-70
2023/07/01 14:48:08;;;;;;;0.80;0.80;;;;;;;;;;5077096;28;20202;-66
2023/07/01 14:50:36;;;;;;;0.70;0.70;;;;;;;;;;5078064;28;20209;-68